sensor_id;sensor_type;location;lat;lon;timestamp;pressure;altitude;pressure_sealevel;temperature;humidity
804;BME280;25687;49.976;8.240;2024-03-22T00:00:53;100801.06;;;8.25;100.00
804;BME280;25687;49.976;8.240;2024-03-22T00:03:18;100799.03;;;8.33;100.00
804;BME280;25687;49.976;8.240;2024-03-22T00:05:44;100797.19;;;8.38;100.00
804;BME280;25687;49.976;8.240;2024-03-22T00:08:10;100789.44;;;8.40;100.00
804;BME280;25687;49.976;8.240;2024-03-22T00:10:35;100792.94;;;8.37;100.00
804;BME280;25687;49.976;8.240;2024-03-22T00:13:00;100788.75;;;8.35;100.00
804;BME280;25687;49.976;8.240;2024-03-22T00:15:26;100792.47;;;8.26;100.00
804;BME280;25687;49.976;8.240;2024-03-22T00:17:51;100794.72;;;8.10;100.00
804;BME280;25687;49.976;8.240;2024-03-22T00:20:16;100785.28;;;8.11;100.00
804;BME280;25687;49.976;8.240;2024-03-22T00:22:41;100787.06;;;8.08;100.00
804;BME280;25687;49.976;8.240;2024-03-22T00:25:07;100789.41;;;8.15;100.00
804;BME280;25687;49.976;8.240;2024-03-22T00:27:32;100790.47;;;8.09;100.00
804;BME280;25687;49.976;8.240;2024-03-22T00:29:58;100785.44;;;8.06;100.00
804;BME280;25687;49.976;8.240;2024-03-22T00:32:23;100784.00;;;7.97;100.00
804;BME280;25687;49.976;8.240;2024-03-22T00:34:48;100777.94;;;8.00;100.00
804;BME280;25687;49.976;8.240;2024-03-22T00:37:13;100776.44;;;7.94;100.00
804;BME280;25687;49.976;8.240;2024-03-22T00:39:39;100768.28;;;7.83;100.00
804;BME280;25687;49.976;8.240;2024-03-22T00:42:04;100765.66;;;7.84;100.00
804;BME280;25687;49.976;8.240;2024-03-22T00:44:29;100762.28;;;7.82;100.00
804;BME280;25687;49.976;8.240;2024-03-22T00:46:54;100766.44;;;7.86;100.00
804;BME280;25687;49.976;8.240;2024-03-22T00:49:20;100762.50;;;7.76;100.00
804;BME280;25687;49.976;8.240;2024-03-22T00:51:45;100760.38;;;7.62;100.00
804;BME280;25687;49.976;8.240;2024-03-22T00:54:12;100757.22;;;7.54;100.00
804;BME280;25687;49.976;8.240;2024-03-22T00:56:37;100757.38;;;7.49;100.00
804;BME280;25687;49.976;8.240;2024-03-22T00:59:03;100761.09;;;7.39;100.00
804;BME280;25687;49.976;8.240;2024-03-22T01:01:28;100753.34;;;7.40;100.00
804;BME280;25687;49.976;8.240;2024-03-22T01:03:53;100748.41;;;7.36;100.00
804;BME280;25687;49.976;8.240;2024-03-22T01:06:18;100741.66;;;7.33;100.00
804;BME280;25687;49.976;8.240;2024-03-22T01:08:48;100745.84;;;7.34;100.00
804;BME280;25687;49.976;8.240;2024-03-22T01:11:14;100736.63;;;7.30;100.00
804;BME280;25687;49.976;8.240;2024-03-22T01:13:39;100740.09;;;7.27;100.00
804;BME280;25687;49.976;8.240;2024-03-22T01:16:05;100737.72;;;7.21;100.00
804;BME280;25687;49.976;8.240;2024-03-22T01:18:30;100737.84;;;7.18;100.00
804;BME280;25687;49.976;8.240;2024-03-22T01:20:55;100730.47;;;7.07;100.00
804;BME280;25687;49.976;8.240;2024-03-22T01:23:20;100727.91;;;7.07;100.00
804;BME280;25687;49.976;8.240;2024-03-22T01:25:46;100739.03;;;7.06;100.00
804;BME280;25687;49.976;8.240;2024-03-22T01:28:11;100739.31;;;6.97;100.00
804;BME280;25687;49.976;8.240;2024-03-22T01:30:36;100738.63;;;6.90;100.00
804;BME280;25687;49.976;8.240;2024-03-22T01:33:02;100740.09;;;6.99;100.00
804;BME280;25687;49.976;8.240;2024-03-22T01:35:27;100741.19;;;6.90;100.00
804;BME280;25687;49.976;8.240;2024-03-22T01:37:52;100742.34;;;6.80;100.00
804;BME280;25687;49.976;8.240;2024-03-22T01:40:17;100742.53;;;6.74;100.00
804;BME280;25687;49.976;8.240;2024-03-22T01:42:43;100737.47;;;6.72;100.00
804;BME280;25687;49.976;8.240;2024-03-22T01:45:08;100745.25;;;6.68;100.00
804;BME280;25687;49.976;8.240;2024-03-22T01:47:33;100738.81;;;6.54;100.00
804;BME280;25687;49.976;8.240;2024-03-22T01:50:00;100742.34;;;6.49;100.00
804;BME280;25687;49.976;8.240;2024-03-22T01:52:26;100740.88;;;6.40;100.00
804;BME280;25687;49.976;8.240;2024-03-22T01:54:52;100739.31;;;6.36;100.00
804;BME280;25687;49.976;8.240;2024-03-22T01:57:17;100736.69;;;6.39;100.00
804;BME280;25687;49.976;8.240;2024-03-22T01:59:42;100741.03;;;6.35;100.00
804;BME280;25687;49.976;8.240;2024-03-22T02:02:08;100736.09;;;6.29;100.00
804;BME280;25687;49.976;8.240;2024-03-22T02:04:34;100728.53;;;6.24;100.00
804;BME280;25687;49.976;8.240;2024-03-22T02:06:59;100721.53;;;6.31;100.00
804;BME280;25687;49.976;8.240;2024-03-22T02:09:24;100723.22;;;6.32;100.00
804;BME280;25687;49.976;8.240;2024-03-22T02:11:50;100718.03;;;6.35;100.00
804;BME280;25687;49.976;8.240;2024-03-22T02:14:16;100714.56;;;6.36;100.00
804;BME280;25687;49.976;8.240;2024-03-22T02:16:41;100707.81;;;6.34;100.00
804;BME280;25687;49.976;8.240;2024-03-22T02:19:07;100706.38;;;6.25;100.00
804;BME280;25687;49.976;8.240;2024-03-22T02:21:33;100702.88;;;6.29;100.00
804;BME280;25687;49.976;8.240;2024-03-22T02:23:58;100700.38;;;6.26;100.00
804;BME280;25687;49.976;8.240;2024-03-22T02:26:23;100689.44;;;6.21;100.00
804;BME280;25687;49.976;8.240;2024-03-22T02:28:49;100692.97;;;6.17;100.00
804;BME280;25687;49.976;8.240;2024-03-22T02:31:14;100692.13;;;6.16;100.00
804;BME280;25687;49.976;8.240;2024-03-22T02:33:40;100677.16;;;6.02;100.00
804;BME280;25687;49.976;8.240;2024-03-22T02:36:05;100683.38;;;5.92;100.00
804;BME280;25687;49.976;8.240;2024-03-22T02:38:30;100685.00;;;5.94;100.00
804;BME280;25687;49.976;8.240;2024-03-22T02:40:58;100687.38;;;6.02;100.00
804;BME280;25687;49.976;8.240;2024-03-22T02:43:23;100690.88;;;5.96;100.00
804;BME280;25687;49.976;8.240;2024-03-22T02:45:48;100693.44;;;5.98;100.00
804;BME280;25687;49.976;8.240;2024-03-22T02:48:14;100681.50;;;5.98;100.00
804;BME280;25687;49.976;8.240;2024-03-22T02:50:39;100679.56;;;6.08;100.00
804;BME280;25687;49.976;8.240;2024-03-22T02:53:04;100682.22;;;6.04;100.00
804;BME280;25687;49.976;8.240;2024-03-22T02:55:36;100679.84;;;5.96;100.00
804;BME280;25687;49.976;8.240;2024-03-22T02:58:01;100672.19;;;5.96;100.00
804;BME280;25687;49.976;8.240;2024-03-22T03:00:27;100675.53;;;6.00;100.00
804;BME280;25687;49.976;8.240;2024-03-22T03:02:53;100672.72;;;6.10;100.00
804;BME280;25687;49.976;8.240;2024-03-22T03:05:18;100664.03;;;6.16;100.00
804;BME280;25687;49.976;8.240;2024-03-22T03:07:43;100663.09;;;6.19;100.00
804;BME280;25687;49.976;8.240;2024-03-22T03:10:09;100659.13;;;6.08;100.00
804;BME280;25687;49.976;8.240;2024-03-22T03:12:34;100665.28;;;6.01;100.00
804;BME280;25687;49.976;8.240;2024-03-22T03:14:59;100660.69;;;6.14;100.00
804;BME280;25687;49.976;8.240;2024-03-22T03:17:25;100656.03;;;6.28;100.00
804;BME280;25687;49.976;8.240;2024-03-22T03:19:50;100654.16;;;6.34;100.00
804;BME280;25687;49.976;8.240;2024-03-22T03:22:15;100646.31;;;6.41;100.00
804;BME280;25687;49.976;8.240;2024-03-22T03:24:40;100641.31;;;6.37;100.00
804;BME280;25687;49.976;8.240;2024-03-22T03:27:06;100645.22;;;6.49;100.00
804;BME280;25687;49.976;8.240;2024-03-22T03:29:31;100643.41;;;6.54;100.00
804;BME280;25687;49.976;8.240;2024-03-22T03:31:56;100640.50;;;6.66;100.00
804;BME280;25687;49.976;8.240;2024-03-22T03:34:22;100640.16;;;6.77;100.00
804;BME280;25687;49.976;8.240;2024-03-22T03:36:47;100630.53;;;6.85;100.00
804;BME280;25687;49.976;8.240;2024-03-22T03:39:12;100631.16;;;6.92;100.00
804;BME280;25687;49.976;8.240;2024-03-22T03:41:38;100632.72;;;6.98;100.00
804;BME280;25687;49.976;8.240;2024-03-22T03:44:04;100632.91;;;6.91;100.00
804;BME280;25687;49.976;8.240;2024-03-22T03:46:29;100632.56;;;7.02;100.00
804;BME280;25687;49.976;8.240;2024-03-22T03:48:54;100635.69;;;7.12;100.00
804;BME280;25687;49.976;8.240;2024-03-22T03:51:19;100629.47;;;7.19;100.00
804;BME280;25687;49.976;8.240;2024-03-22T03:53:45;100628.50;;;7.23;100.00
804;BME280;25687;49.976;8.240;2024-03-22T03:56:10;100629.28;;;7.25;100.00
804;BME280;25687;49.976;8.240;2024-03-22T03:58:35;100631.63;;;7.32;100.00
804;BME280;25687;49.976;8.240;2024-03-22T04:01:06;100615.44;;;7.31;100.00
804;BME280;25687;49.976;8.240;2024-03-22T04:03:31;100616.06;;;7.38;100.00
804;BME280;25687;49.976;8.240;2024-03-22T04:05:57;100611.88;;;7.37;100.00
804;BME280;25687;49.976;8.240;2024-03-22T04:08:23;100605.44;;;7.50;100.00
804;BME280;25687;49.976;8.240;2024-03-22T04:10:52;100600.44;;;7.47;100.00
804;BME280;25687;49.976;8.240;2024-03-22T04:13:18;100601.03;;;7.54;100.00
804;BME280;25687;49.976;8.240;2024-03-22T04:15:43;100605.06;;;7.36;100.00
804;BME280;25687;49.976;8.240;2024-03-22T04:18:08;100605.59;;;7.46;100.00
804;BME280;25687;49.976;8.240;2024-03-22T04:20:33;100595.19;;;7.50;100.00
804;BME280;25687;49.976;8.240;2024-03-22T04:22:58;100588.31;;;7.52;100.00
804;BME280;25687;49.976;8.240;2024-03-22T04:25:24;100582.72;;;7.41;100.00
804;BME280;25687;49.976;8.240;2024-03-22T04:27:49;100586.63;;;7.26;100.00
804;BME280;25687;49.976;8.240;2024-03-22T04:30:14;100582.25;;;7.30;100.00
804;BME280;25687;49.976;8.240;2024-03-22T04:32:40;100586.97;;;7.40;100.00
804;BME280;25687;49.976;8.240;2024-03-22T04:35:05;100584.28;;;7.45;100.00
804;BME280;25687;49.976;8.240;2024-03-22T04:37:30;100591.00;;;7.48;100.00
804;BME280;25687;49.976;8.240;2024-03-22T04:39:56;100588.00;;;7.62;100.00
804;BME280;25687;49.976;8.240;2024-03-22T04:42:21;100589.78;;;7.59;100.00
804;BME280;25687;49.976;8.240;2024-03-22T04:44:47;100590.72;;;7.57;100.00
804;BME280;25687;49.976;8.240;2024-03-22T04:47:12;100583.34;;;7.48;100.00
804;BME280;25687;49.976;8.240;2024-03-22T04:49:37;100588.44;;;7.48;100.00
804;BME280;25687;49.976;8.240;2024-03-22T04:52:03;100591.88;;;7.48;100.00
804;BME280;25687;49.976;8.240;2024-03-22T04:54:28;100592.06;;;7.42;100.00
804;BME280;25687;49.976;8.240;2024-03-22T04:56:53;100592.16;;;7.39;100.00
804;BME280;25687;49.976;8.240;2024-03-22T04:59:18;100595.81;;;7.32;100.00
804;BME280;25687;49.976;8.240;2024-03-22T05:01:44;100602.72;;;7.30;100.00
804;BME280;25687;49.976;8.240;2024-03-22T05:04:09;100602.81;;;7.26;100.00
804;BME280;25687;49.976;8.240;2024-03-22T05:06:35;100603.13;;;7.17;100.00
804;BME280;25687;49.976;8.240;2024-03-22T05:09:00;100597.53;;;7.04;100.00
804;BME280;25687;49.976;8.240;2024-03-22T05:11:25;100602.03;;;6.98;100.00
804;BME280;25687;49.976;8.240;2024-03-22T05:13:51;100598.44;;;7.03;100.00
804;BME280;25687;49.976;8.240;2024-03-22T05:16:16;100599.28;;;7.04;100.00
804;BME280;25687;49.976;8.240;2024-03-22T05:18:41;100600.88;;;7.06;100.00
804;BME280;25687;49.976;8.240;2024-03-22T05:21:07;100600.63;;;7.14;100.00
804;BME280;25687;49.976;8.240;2024-03-22T05:23:32;100599.75;;;7.15;100.00
804;BME280;25687;49.976;8.240;2024-03-22T05:25:57;100598.00;;;7.17;100.00
804;BME280;25687;49.976;8.240;2024-03-22T05:28:24;100592.03;;;7.17;100.00
804;BME280;25687;49.976;8.240;2024-03-22T05:30:50;100596.94;;;7.23;100.00
804;BME280;25687;49.976;8.240;2024-03-22T05:33:15;100593.44;;;7.25;100.00
804;BME280;25687;49.976;8.240;2024-03-22T05:35:40;100592.16;;;7.39;100.00
804;BME280;25687;49.976;8.240;2024-03-22T05:38:06;100589.84;;;7.58;100.00
804;BME280;25687;49.976;8.240;2024-03-22T05:40:32;100586.78;;;7.72;100.00
804;BME280;25687;49.976;8.240;2024-03-22T05:42:57;100589.28;;;7.73;100.00
804;BME280;25687;49.976;8.240;2024-03-22T05:45:22;100585.56;;;7.82;100.00
804;BME280;25687;49.976;8.240;2024-03-22T05:47:47;100579.47;;;7.86;100.00
804;BME280;25687;49.976;8.240;2024-03-22T05:50:13;100572.59;;;7.87;100.00
804;BME280;25687;49.976;8.240;2024-03-22T05:52:39;100580.56;;;8.03;100.00
804;BME280;25687;49.976;8.240;2024-03-22T05:55:05;100578.78;;;8.05;100.00
804;BME280;25687;49.976;8.240;2024-03-22T05:57:30;100576.28;;;8.03;100.00
804;BME280;25687;49.976;8.240;2024-03-22T05:59:56;100566.16;;;7.77;100.00
804;BME280;25687;49.976;8.240;2024-03-22T06:02:21;100570.78;;;7.90;100.00
804;BME280;25687;49.976;8.240;2024-03-22T06:04:47;100568.28;;;8.13;100.00
804;BME280;25687;49.976;8.240;2024-03-22T06:07:12;100573.38;;;8.36;100.00
804;BME280;25687;49.976;8.240;2024-03-22T06:09:39;100565.78;;;8.57;100.00
804;BME280;25687;49.976;8.240;2024-03-22T06:12:14;100568.09;;;8.63;100.00
804;BME280;25687;49.976;8.240;2024-03-22T06:14:43;100566.72;;;8.77;100.00
804;BME280;25687;49.976;8.240;2024-03-22T06:17:08;100559.44;;;8.88;100.00
804;BME280;25687;49.976;8.240;2024-03-22T06:19:35;100558.53;;;8.89;100.00
804;BME280;25687;49.976;8.240;2024-03-22T06:22:00;100557.78;;;8.87;100.00
804;BME280;25687;49.976;8.240;2024-03-22T06:24:25;100554.13;;;8.93;100.00
804;BME280;25687;49.976;8.240;2024-03-22T06:26:51;100549.22;;;8.86;100.00
804;BME280;25687;49.976;8.240;2024-03-22T06:29:16;100546.81;;;9.04;100.00
804;BME280;25687;49.976;8.240;2024-03-22T06:31:42;100549.41;;;9.25;100.00
804;BME280;25687;49.976;8.240;2024-03-22T06:34:07;100541.00;;;9.42;100.00
804;BME280;25687;49.976;8.240;2024-03-22T06:36:32;100542.97;;;9.35;100.00
804;BME280;25687;49.976;8.240;2024-03-22T06:38:58;100539.84;;;9.49;100.00
804;BME280;25687;49.976;8.240;2024-03-22T06:41:24;100537.09;;;9.73;100.00
804;BME280;25687;49.976;8.240;2024-03-22T06:43:49;100537.31;;;9.87;100.00
804;BME280;25687;49.976;8.240;2024-03-22T06:46:15;100537.31;;;9.87;100.00
804;BME280;25687;49.976;8.240;2024-03-22T06:48:40;100532.22;;;10.05;100.00
804;BME280;25687;49.976;8.240;2024-03-22T06:51:05;100534.91;;;10.22;100.00
804;BME280;25687;49.976;8.240;2024-03-22T06:53:31;100533.47;;;10.34;100.00
804;BME280;25687;49.976;8.240;2024-03-22T06:55:56;100529.63;;;10.06;100.00
804;BME280;25687;49.976;8.240;2024-03-22T06:58:21;100525.09;;;10.11;100.00
804;BME280;25687;49.976;8.240;2024-03-22T07:00:47;100525.28;;;10.07;100.00
804;BME280;25687;49.976;8.240;2024-03-22T07:03:12;100528.38;;;10.15;100.00
804;BME280;25687;49.976;8.240;2024-03-22T07:05:37;100528.31;;;10.34;100.00
804;BME280;25687;49.976;8.240;2024-03-22T07:08:02;100520.38;;;10.58;100.00
804;BME280;25687;49.976;8.240;2024-03-22T07:10:28;100524.19;;;10.51;100.00
804;BME280;25687;49.976;8.240;2024-03-22T07:12:56;100519.03;;;10.51;100.00
804;BME280;25687;49.976;8.240;2024-03-22T07:15:24;100521.06;;;10.61;100.00
804;BME280;25687;49.976;8.240;2024-03-22T07:17:50;100517.09;;;10.73;100.00
804;BME280;25687;49.976;8.240;2024-03-22T07:20:16;100512.91;;;10.53;100.00
804;BME280;25687;49.976;8.240;2024-03-22T07:22:42;100508.75;;;10.51;100.00
804;BME280;25687;49.976;8.240;2024-03-22T07:25:07;100505.69;;;10.42;100.00
804;BME280;25687;49.976;8.240;2024-03-22T07:27:35;100504.84;;;10.42;100.00
804;BME280;25687;49.976;8.240;2024-03-22T07:30:00;100504.66;;;10.64;100.00
804;BME280;25687;49.976;8.240;2024-03-22T07:32:26;100504.56;;;10.48;100.00
804;BME280;25687;49.976;8.240;2024-03-22T07:34:51;100503.41;;;10.36;100.00
804;BME280;25687;49.976;8.240;2024-03-22T07:37:16;100500.84;;;10.36;100.00
804;BME280;25687;49.976;8.240;2024-03-22T07:39:42;100498.69;;;10.46;100.00
804;BME280;25687;49.976;8.240;2024-03-22T07:42:07;100492.78;;;10.79;100.00
804;BME280;25687;49.976;8.240;2024-03-22T07:44:32;100489.00;;;11.04;100.00
804;BME280;25687;49.976;8.240;2024-03-22T07:46:58;100488.59;;;11.29;100.00
804;BME280;25687;49.976;8.240;2024-03-22T07:49:23;100484.50;;;11.25;100.00
804;BME280;25687;49.976;8.240;2024-03-22T07:51:48;100484.81;;;11.36;100.00
804;BME280;25687;49.976;8.240;2024-03-22T07:54:14;100480.59;;;11.51;100.00
804;BME280;25687;49.976;8.240;2024-03-22T07:56:39;100480.56;;;11.35;100.00
804;BME280;25687;49.976;8.240;2024-03-22T07:59:05;100483.13;;;11.35;100.00
804;BME280;25687;49.976;8.240;2024-03-22T08:01:30;100482.13;;;11.38;100.00
804;BME280;25687;49.976;8.240;2024-03-22T08:03:56;100473.44;;;11.56;100.00
804;BME280;25687;49.976;8.240;2024-03-22T08:06:21;100477.38;;;11.63;100.00
804;BME280;25687;49.976;8.240;2024-03-22T08:08:46;100479.09;;;11.63;100.00
804;BME280;25687;49.976;8.240;2024-03-22T08:11:12;100479.75;;;11.51;100.00
804;BME280;25687;49.976;8.240;2024-03-22T08:13:37;100475.63;;;11.30;100.00
804;BME280;25687;49.976;8.240;2024-03-22T08:16:03;100475.91;;;11.42;100.00
804;BME280;25687;49.976;8.240;2024-03-22T08:18:29;100472.16;;;11.32;100.00
804;BME280;25687;49.976;8.240;2024-03-22T08:20:54;100476.81;;;11.07;100.00
804;BME280;25687;49.976;8.240;2024-03-22T08:23:19;100466.13;;;10.97;100.00
804;BME280;25687;49.976;8.240;2024-03-22T08:25:47;100466.97;;;10.98;100.00
804;BME280;25687;49.976;8.240;2024-03-22T08:28:13;100460.94;;;11.33;100.00
804;BME280;25687;49.976;8.240;2024-03-22T08:30:38;100455.25;;;11.59;100.00
804;BME280;25687;49.976;8.240;2024-03-22T08:33:04;100460.38;;;11.59;100.00
804;BME280;25687;49.976;8.240;2024-03-22T08:35:29;100448.59;;;11.55;100.00
804;BME280;25687;49.976;8.240;2024-03-22T08:37:55;100439.22;;;11.70;100.00
804;BME280;25687;49.976;8.240;2024-03-22T08:40:21;100451.19;;;11.87;100.00
804;BME280;25687;49.976;8.240;2024-03-22T08:42:46;100440.97;;;12.02;100.00
804;BME280;25687;49.976;8.240;2024-03-22T08:45:11;100442.06;;;12.14;100.00
804;BME280;25687;49.976;8.240;2024-03-22T08:47:37;100434.22;;;12.62;100.00
804;BME280;25687;49.976;8.240;2024-03-22T08:50:03;100424.84;;;13.04;100.00
804;BME280;25687;49.976;8.240;2024-03-22T08:52:29;100426.50;;;13.34;100.00
804;BME280;25687;49.976;8.240;2024-03-22T08:54:57;100423.09;;;13.48;100.00
804;BME280;25687;49.976;8.240;2024-03-22T08:57:22;100430.19;;;14.00;100.00
804;BME280;25687;49.976;8.240;2024-03-22T08:59:47;100420.31;;;14.60;100.00
804;BME280;25687;49.976;8.240;2024-03-22T09:02:13;100416.38;;;14.93;100.00
804;BME280;25687;49.976;8.240;2024-03-22T09:04:39;100410.38;;;15.19;100.00
804;BME280;25687;49.976;8.240;2024-03-22T09:07:05;100407.13;;;15.41;100.00
804;BME280;25687;49.976;8.240;2024-03-22T09:09:30;100411.53;;;15.14;100.00
804;BME280;25687;49.976;8.240;2024-03-22T09:11:55;100411.66;;;15.50;100.00
804;BME280;25687;49.976;8.240;2024-03-22T09:14:20;100404.03;;;15.36;100.00
804;BME280;25687;49.976;8.240;2024-03-22T09:16:46;100412.38;;;15.76;100.00
804;BME280;25687;49.976;8.240;2024-03-22T09:19:11;100406.75;;;15.95;100.00
804;BME280;25687;49.976;8.240;2024-03-22T09:21:36;100402.88;;;16.01;100.00
804;BME280;25687;49.976;8.240;2024-03-22T09:24:02;100400.53;;;16.34;100.00
804;BME280;25687;49.976;8.240;2024-03-22T09:26:32;100398.72;;;16.23;100.00
804;BME280;25687;49.976;8.240;2024-03-22T09:28:57;100397.88;;;16.22;100.00
804;BME280;25687;49.976;8.240;2024-03-22T09:31:23;100394.72;;;16.77;100.00
804;BME280;25687;49.976;8.240;2024-03-22T09:33:48;100387.75;;;16.77;100.00
804;BME280;25687;49.976;8.240;2024-03-22T09:36:13;100382.19;;;17.27;100.00
804;BME280;25687;49.976;8.240;2024-03-22T09:38:38;100386.91;;;17.34;100.00
804;BME280;25687;49.976;8.240;2024-03-22T09:41:04;100384.19;;;16.78;100.00
804;BME280;25687;49.976;8.240;2024-03-22T09:43:30;100377.97;;;17.04;100.00
804;BME280;25687;49.976;8.240;2024-03-22T09:45:57;100377.72;;;17.30;100.00
804;BME280;25687;49.976;8.240;2024-03-22T09:48:23;100374.47;;;17.60;99.04
804;BME280;25687;49.976;8.240;2024-03-22T09:50:49;100377.06;;;17.60;97.61
804;BME280;25687;49.976;8.240;2024-03-22T09:53:20;100374.31;;;18.48;93.76
804;BME280;25687;49.976;8.240;2024-03-22T09:55:47;100368.69;;;18.95;88.16
804;BME280;25687;49.976;8.240;2024-03-22T09:58:13;100367.47;;;19.09;88.82
804;BME280;25687;49.976;8.240;2024-03-22T10:00:38;100363.00;;;18.59;90.49
804;BME280;25687;49.976;8.240;2024-03-22T10:03:04;100362.06;;;18.60;92.15
804;BME280;25687;49.976;8.240;2024-03-22T10:05:30;100356.13;;;18.88;90.59
804;BME280;25687;49.976;8.240;2024-03-22T10:07:56;100360.78;;;18.54;92.93
804;BME280;25687;49.976;8.240;2024-03-22T10:10:21;100353.00;;;18.64;93.75
804;BME280;25687;49.976;8.240;2024-03-22T10:12:48;100351.66;;;18.38;96.69
804;BME280;25687;49.976;8.240;2024-03-22T10:15:13;100353.13;;;18.31;96.86
804;BME280;25687;49.976;8.240;2024-03-22T10:17:39;100348.69;;;18.43;97.39
804;BME280;25687;49.976;8.240;2024-03-22T10:20:05;100331.16;;;18.24;95.73
804;BME280;25687;49.976;8.240;2024-03-22T10:22:38;100334.69;;;18.23;98.45
804;BME280;25687;49.976;8.240;2024-03-22T10:25:04;100328.88;;;18.31;97.58
804;BME280;25687;49.976;8.240;2024-03-22T10:27:31;100327.47;;;18.27;93.96
804;BME280;25687;49.976;8.240;2024-03-22T10:29:57;100324.78;;;18.69;86.97
804;BME280;25687;49.976;8.240;2024-03-22T10:32:23;100324.97;;;18.77;87.85
804;BME280;25687;49.976;8.240;2024-03-22T10:34:50;100319.25;;;18.52;90.47
804;BME280;25687;49.976;8.240;2024-03-22T10:37:16;100320.28;;;18.71;89.99
804;BME280;25687;49.976;8.240;2024-03-22T10:39:43;100313.44;;;17.97;92.62
804;BME280;25687;49.976;8.240;2024-03-22T10:42:10;100307.78;;;17.59;97.73
804;BME280;25687;49.976;8.240;2024-03-22T10:44:36;100305.97;;;17.92;98.45
804;BME280;25687;49.976;8.240;2024-03-22T10:47:04;100299.50;;;17.86;96.14
804;BME280;25687;49.976;8.240;2024-03-22T10:49:30;100290.66;;;17.56;97.39
804;BME280;25687;49.976;8.240;2024-03-22T10:51:59;100288.75;;;17.58;98.82
804;BME280;25687;49.976;8.240;2024-03-22T10:54:30;100279.88;;;17.82;95.90
804;BME280;25687;49.976;8.240;2024-03-22T10:56:57;100282.69;;;18.12;94.93
804;BME280;25687;49.976;8.240;2024-03-22T10:59:23;100274.25;;;18.19;93.52
804;BME280;25687;49.976;8.240;2024-03-22T11:01:49;100268.47;;;18.47;93.79
804;BME280;25687;49.976;8.240;2024-03-22T11:04:19;100268.59;;;19.27;90.74
804;BME280;25687;49.976;8.240;2024-03-22T11:06:48;100267.75;;;19.85;83.58
804;BME280;25687;49.976;8.240;2024-03-22T11:09:27;100256.50;;;19.55;80.45
804;BME280;25687;49.976;8.240;2024-03-22T11:11:53;100255.00;;;19.33;84.62
804;BME280;25687;49.976;8.240;2024-03-22T11:14:19;100246.22;;;19.44;84.99
804;BME280;25687;49.976;8.240;2024-03-22T11:16:46;100247.84;;;19.64;83.95
804;BME280;25687;49.976;8.240;2024-03-22T11:19:11;100243.84;;;19.80;82.17
804;BME280;25687;49.976;8.240;2024-03-22T11:21:37;100228.97;;;20.00;83.44
804;BME280;25687;49.976;8.240;2024-03-22T11:24:03;100231.53;;;19.33;84.08
804;BME280;25687;49.976;8.240;2024-03-22T11:26:28;100226.72;;;19.18;87.17
804;BME280;25687;49.976;8.240;2024-03-22T11:28:53;100219.28;;;19.53;87.45
804;BME280;25687;49.976;8.240;2024-03-22T11:31:18;100206.47;;;19.79;85.19
804;BME280;25687;49.976;8.240;2024-03-22T11:33:47;100203.47;;;19.64;86.42
804;BME280;25687;49.976;8.240;2024-03-22T11:36:13;100197.84;;;19.69;81.11
804;BME280;25687;49.976;8.240;2024-03-22T11:38:38;100185.03;;;19.86;84.40
804;BME280;25687;49.976;8.240;2024-03-22T11:41:04;100188.81;;;20.11;81.55
804;BME280;25687;49.976;8.240;2024-03-22T11:43:30;100182.69;;;20.02;77.59
804;BME280;25687;49.976;8.240;2024-03-22T11:45:55;100180.38;;;19.89;83.21
804;BME280;25687;49.976;8.240;2024-03-22T11:48:21;100181.91;;;19.72;88.53
804;BME280;25687;49.976;8.240;2024-03-22T11:50:47;100179.44;;;19.71;86.43
804;BME280;25687;49.976;8.240;2024-03-22T11:53:16;100183.00;;;19.70;85.60
804;BME280;25687;49.976;8.240;2024-03-22T11:55:41;100179.13;;;19.93;85.99
804;BME280;25687;49.976;8.240;2024-03-22T11:58:09;100173.13;;;19.63;84.49
804;BME280;25687;49.976;8.240;2024-03-22T12:00:35;100174.34;;;19.69;87.04
804;BME280;25687;49.976;8.240;2024-03-22T12:03:03;100172.84;;;19.66;87.61
804;BME280;25687;49.976;8.240;2024-03-22T12:05:29;100176.72;;;19.62;85.53
804;BME280;25687;49.976;8.240;2024-03-22T12:07:55;100178.47;;;19.72;83.33
804;BME280;25687;49.976;8.240;2024-03-22T12:10:21;100180.38;;;19.79;82.71
804;BME280;25687;49.976;8.240;2024-03-22T12:12:46;100178.50;;;19.62;84.72
804;BME280;25687;49.976;8.240;2024-03-22T12:15:11;100171.91;;;19.67;84.55
804;BME280;25687;49.976;8.240;2024-03-22T12:17:37;100156.44;;;19.37;82.71
804;BME280;25687;49.976;8.240;2024-03-22T12:20:06;100154.91;;;19.54;84.60
804;BME280;25687;49.976;8.240;2024-03-22T12:22:33;100155.75;;;19.15;86.08
804;BME280;25687;49.976;8.240;2024-03-22T12:24:59;100146.41;;;19.32;85.44
804;BME280;25687;49.976;8.240;2024-03-22T12:27:24;100154.25;;;19.22;85.45
804;BME280;25687;49.976;8.240;2024-03-22T12:29:49;100143.38;;;19.46;84.52
804;BME280;25687;49.976;8.240;2024-03-22T12:32:15;100136.53;;;19.35;85.77
804;BME280;25687;49.976;8.240;2024-03-22T12:34:40;100135.28;;;19.20;88.06
804;BME280;25687;49.976;8.240;2024-03-22T12:37:05;100136.84;;;19.23;88.17
804;BME280;25687;49.976;8.240;2024-03-22T12:39:30;100130.91;;;19.40;86.63
804;BME280;25687;49.976;8.240;2024-03-22T12:41:57;100121.75;;;19.07;86.88
804;BME280;25687;49.976;8.240;2024-03-22T12:44:22;100126.13;;;19.06;88.65
804;BME280;25687;49.976;8.240;2024-03-22T12:46:48;100114.75;;;19.07;89.12
804;BME280;25687;49.976;8.240;2024-03-22T12:49:14;100114.41;;;18.51;90.96
804;BME280;25687;49.976;8.240;2024-03-22T12:51:39;100121.44;;;18.90;91.52
804;BME280;25687;49.976;8.240;2024-03-22T12:54:05;100117.50;;;18.96;91.90
804;BME280;25687;49.976;8.240;2024-03-22T12:56:31;100110.50;;;18.96;92.75
804;BME280;25687;49.976;8.240;2024-03-22T12:58:56;100104.28;;;18.87;92.29